createdAt,value
2023-04-02T00:01:00.770Z,99634.13
2023-04-02T00:03:45.988Z,99646.09
2023-04-02T00:06:32.857Z,99642.59
2023-04-02T00:09:16.207Z,99648.00
2023-04-02T00:11:48.522Z,99658.16
2023-04-02T00:14:26.434Z,99666.97
2023-04-02T00:16:53.895Z,99659.84
2023-04-02T00:19:38.582Z,99666.63
2023-04-02T00:22:07.479Z,99673.88
2023-04-02T00:24:34.223Z,99669.72
2023-04-02T00:27:01.002Z,99676.16
2023-04-02T00:29:27.927Z,99675.47
2023-04-02T00:31:54.651Z,99687.69
2023-04-02T00:34:21.322Z,99685.28
2023-04-02T00:36:48.138Z,99687.47
2023-04-02T00:39:23.488Z,99693.97
2023-04-02T00:41:54.584Z,99687.06
2023-04-02T00:44:21.989Z,99686.63
2023-04-02T00:46:50.219Z,99691.41
2023-04-02T00:49:22.859Z,99699.06
2023-04-02T00:51:53.418Z,99696.69
2023-04-02T00:54:21.498Z,99696.69
2023-04-02T00:56:50.616Z,99694.25
2023-04-02T00:59:25.517Z,99695.19
2023-04-02T01:01:54.359Z,99697.44
2023-04-02T01:04:39.630Z,99696.75
2023-04-02T01:07:08.870Z,99695.88
2023-04-02T01:09:44.352Z,99705.06
2023-04-02T01:12:24.993Z,99705.47
2023-04-02T01:15:07.451Z,99706.63
2023-04-02T01:17:54.849Z,99709.25
2023-04-02T01:20:40.223Z,99711.09
2023-04-02T01:23:34.595Z,99715.00
2023-04-02T01:26:09.313Z,99716.44
2023-04-02T01:28:52.232Z,99716.81
2023-04-02T01:31:18.895Z,99723.22
2023-04-02T01:33:45.426Z,99723.84
2023-04-02T01:36:18.330Z,99720.56
2023-04-02T01:38:53.227Z,99736.75
2023-04-02T01:41:23.649Z,99729.78
2023-04-02T01:43:53.094Z,99734.38
2023-04-02T01:46:30.292Z,99735.22
2023-04-02T01:48:57.721Z,99740.13
2023-04-02T01:51:34.061Z,99746.63
2023-04-02T01:54:02.067Z,99752.38
2023-04-02T01:56:30.311Z,99754.03
2023-04-02T01:58:57.651Z,99755.22
2023-04-02T02:01:27.001Z,99760.75
2023-04-02T02:03:53.997Z,99759.00
2023-04-02T02:06:20.668Z,99756.97
2023-04-02T02:08:49.957Z,99757.91
2023-04-02T02:11:18.351Z,99758.78
2023-04-02T02:13:54.576Z,99760.16
2023-04-02T02:16:23.858Z,99762.34
2023-04-02T02:18:54.879Z,99761.66
2023-04-02T02:21:26.673Z,99769.31
2023-04-02T02:23:54.028Z,99776.16
2023-04-02T02:26:22.320Z,99771.72
2023-04-02T02:28:50.090Z,99777.44
2023-04-02T02:31:19.628Z,99782.13
2023-04-02T02:33:48.987Z,99775.56
2023-04-02T02:36:45.559Z,99792.91
2023-04-02T02:39:27.870Z,99796.56
2023-04-02T02:42:00.266Z,99799.75
2023-04-02T02:44:31.389Z,99798.16
2023-04-02T02:47:09.174Z,99801.09
2023-04-02T02:49:39.211Z,99807.25
2023-04-02T02:52:08.729Z,99809.50
2023-04-02T02:54:36.367Z,99811.00
2023-04-02T02:57:05.991Z,99808.31
2023-04-02T02:59:33.998Z,99821.56
2023-04-02T03:02:01.835Z,99819.81
2023-04-02T03:04:30.535Z,99826.59
2023-04-02T03:06:58.053Z,99825.47
2023-04-02T03:09:39.200Z,99826.22
2023-04-02T03:12:28.665Z,99830.00
2023-04-02T03:15:14.862Z,99832.25
2023-04-02T03:17:43.961Z,99839.09
2023-04-02T03:20:17.418Z,99835.59
2023-04-02T03:22:52.316Z,99847.50
2023-04-02T03:25:25.287Z,99848.97
2023-04-02T03:27:53.978Z,99849.66
2023-04-02T03:30:26.488Z,99859.44
2023-04-02T03:32:55.119Z,99864.94
2023-04-02T03:35:32.448Z,99869.00
2023-04-02T03:38:02.701Z,99874.25
2023-04-02T03:40:31.734Z,99876.16
2023-04-02T03:43:04.820Z,99881.84
2023-04-02T03:45:37.841Z,99880.41
2023-04-02T03:48:08.640Z,99887.47
2023-04-02T03:50:48.356Z,99888.81
2023-04-02T03:53:14.865Z,99888.19
2023-04-02T03:55:42.522Z,99888.22
2023-04-02T03:58:12.077Z,99896.53
2023-04-02T04:00:47.142Z,99900.50
2023-04-02T04:03:19.607Z,99907.44
2023-04-02T04:05:49.579Z,99909.63
2023-04-02T04:08:19.178Z,99910.06
2023-04-02T04:10:46.571Z,99916.44
2023-04-02T04:13:15.282Z,99919.09
2023-04-02T04:15:50.364Z,99928.63
2023-04-02T04:18:34.784Z,99921.41
2023-04-02T04:21:02.971Z,99935.78
2023-04-02T04:23:32.657Z,99934.44
2023-04-02T04:25:59.224Z,99931.44
2023-04-02T04:28:30.675Z,99941.31
2023-04-02T04:31:01.897Z,99944.09
2023-04-02T04:33:34.764Z,99945.56
2023-04-02T04:36:02.874Z,99947.47
2023-04-02T04:38:34.112Z,99954.25
2023-04-02T04:41:21.396Z,99955.44
2023-04-02T04:44:06.806Z,99957.28
2023-04-02T04:46:33.556Z,99961.47
2023-04-02T04:49:32.451Z,99959.53
2023-04-02T04:52:37.652Z,99974.66
2023-04-02T04:55:19.087Z,99982.69
2023-04-02T04:57:48.743Z,99988.22
2023-04-02T05:00:21.822Z,99988.13
2023-04-02T05:02:50.843Z,99996.84
2023-04-02T05:05:24.513Z,99993.00
2023-04-02T05:07:52.910Z,100003.47
2023-04-02T05:10:30.851Z,100001.09
2023-04-02T05:13:29.817Z,100008.84
2023-04-02T05:16:11.695Z,100011.34
2023-04-02T05:18:41.782Z,100008.53
2023-04-02T05:21:14.123Z,100016.38
2023-04-02T05:23:51.453Z,100025.03
2023-04-02T05:26:25.807Z,100022.38
2023-04-02T05:28:55.818Z,100025.47
2023-04-02T05:31:26.297Z,100035.28
2023-04-02T05:33:53.721Z,100037.44
2023-04-02T05:36:22.453Z,100036.59
2023-04-02T05:38:49.721Z,100044.56
2023-04-02T05:41:19.637Z,100043.34
2023-04-02T05:43:49.719Z,100054.38
2023-04-02T05:46:17.932Z,100066.63
2023-04-02T05:48:47.089Z,100062.81
2023-04-02T05:51:19.009Z,100065.53
2023-04-02T05:54:05.924Z,100065.66
2023-04-02T05:56:40.986Z,100072.75
2023-04-02T05:59:11.805Z,100074.25
2023-04-02T06:01:39.079Z,100078.13
2023-04-02T06:04:17.515Z,100079.56
2023-04-02T06:06:47.286Z,100088.06
2023-04-02T06:09:23.906Z,100087.94
2023-04-02T06:11:54.783Z,100095.53
2023-04-02T06:14:21.262Z,100104.00
2023-04-02T06:16:48.124Z,100100.81
2023-04-02T06:19:25.847Z,100114.88
2023-04-02T06:21:53.066Z,100114.72
2023-04-02T06:24:21.581Z,100119.38
2023-04-02T06:26:52.168Z,100141.88
2023-04-02T06:29:27.419Z,100143.31
2023-04-02T06:31:56.502Z,100157.03
2023-04-02T06:34:27.844Z,100154.28
2023-04-02T06:36:59.107Z,100161.81
2023-04-02T06:39:27.110Z,100158.63
2023-04-02T06:42:00.677Z,100174.91
2023-04-02T06:44:28.586Z,100169.53
2023-04-02T06:46:58.157Z,100182.47
2023-04-02T06:49:30.658Z,100192.44
2023-04-02T06:51:58.250Z,100197.97
2023-04-02T06:54:24.979Z,100207.13
2023-04-02T06:56:52.647Z,100216.53
2023-04-02T06:59:19.459Z,100219.22
2023-04-02T07:01:52.382Z,100230.69
2023-04-02T07:04:19.677Z,100227.69
2023-04-02T07:06:46.673Z,100228.19
2023-04-02T07:09:13.280Z,100237.66
2023-04-02T07:11:40.338Z,100243.31
2023-04-02T07:14:07.895Z,100255.69
2023-04-02T07:16:34.611Z,100269.34
2023-04-02T07:19:01.165Z,100263.31
2023-04-02T07:21:27.896Z,100279.94
2023-04-02T07:23:55.567Z,100289.06
2023-04-02T07:26:27.327Z,100293.50
2023-04-02T07:28:54.719Z,100302.13
2023-04-02T07:31:24.367Z,100294.28
2023-04-02T07:33:51.464Z,100305.06
2023-04-02T07:36:19.721Z,100309.56
2023-04-02T07:38:47.371Z,100321.53
2023-04-02T07:41:14.139Z,100328.47
2023-04-02T07:43:41.026Z,100327.03
2023-04-02T07:46:08.649Z,100332.78
2023-04-02T07:48:36.994Z,100345.00
2023-04-02T07:51:04.473Z,100346.28
2023-04-02T07:53:35.792Z,100354.00
2023-04-02T07:56:03.024Z,100357.13
2023-04-02T07:58:30.191Z,100357.03
2023-04-02T08:00:56.831Z,100372.00
2023-04-02T08:03:23.459Z,100368.88
2023-04-02T08:05:58.867Z,100381.03
2023-04-02T08:08:25.781Z,100381.66
2023-04-02T08:10:52.326Z,100385.78
2023-04-02T08:13:18.824Z,100397.53
2023-04-02T08:15:45.934Z,100404.56
2023-04-02T08:18:12.934Z,100400.63
2023-04-02T08:20:40.679Z,100412.53
2023-04-02T08:23:13.530Z,100422.00
2023-04-02T08:25:39.964Z,100423.34
2023-04-02T08:28:06.462Z,100428.09
2023-04-02T08:30:33.346Z,100431.47
2023-04-02T08:33:05.825Z,100442.91
2023-04-02T08:35:32.823Z,100444.97
2023-04-02T08:37:59.461Z,100445.44
2023-04-02T08:40:29.006Z,100451.25
2023-04-02T08:43:01.843Z,100449.19
2023-04-02T08:45:39.876Z,100458.97
2023-04-02T08:48:09.660Z,100470.00
2023-04-02T08:50:41.788Z,100472.09
2023-04-02T08:53:15.272Z,100481.56
2023-04-02T08:55:50.143Z,100492.94
2023-04-02T08:58:32.239Z,100495.88
2023-04-02T09:01:00.587Z,100498.97
2023-04-02T09:03:33.891Z,100501.03
2023-04-02T09:06:02.537Z,100505.41
2023-04-02T09:08:35.800Z,100507.22
2023-04-02T09:11:17.282Z,100520.28
2023-04-02T09:13:46.553Z,100526.13
2023-04-02T09:16:13.124Z,100528.88
2023-04-02T09:18:54.354Z,100533.69
2023-04-02T09:21:35.915Z,100535.50
2023-04-02T09:24:04.730Z,100546.09
2023-04-02T09:26:33.170Z,100547.47
2023-04-02T09:29:02.116Z,100546.25
2023-04-02T09:31:50.949Z,100554.81
2023-04-02T09:34:32.293Z,100562.28
2023-04-02T09:37:11.205Z,100566.44
2023-04-02T09:39:39.341Z,100576.38
2023-04-02T09:42:07.724Z,100579.03
2023-04-02T09:44:36.542Z,100582.97
2023-04-02T09:47:05.499Z,100587.78
2023-04-02T09:49:40.480Z,100590.47
2023-04-02T09:52:19.903Z,100600.31
2023-04-02T09:54:47.216Z,100602.53
2023-04-02T09:57:26.456Z,100604.66
2023-04-02T10:00:29.759Z,100614.00
2023-04-02T10:03:02.978Z,100615.16
2023-04-02T10:08:08.919Z,100618.16
2023-04-02T10:10:43.879Z,100621.81
2023-04-02T10:13:18.178Z,100624.47
2023-04-02T10:15:48.722Z,100631.03
2023-04-02T10:18:33.273Z,100638.78
2023-04-02T10:21:01.480Z,100642.84
2023-04-02T10:23:29.306Z,100650.75
2023-04-02T10:25:58.899Z,100643.13
2023-04-02T10:28:40.965Z,100663.38
2023-04-02T10:31:26.431Z,100663.34
2023-04-02T10:34:01.240Z,100674.16
2023-04-02T10:36:43.024Z,100674.41
2023-04-02T10:39:16.136Z,100681.00
2023-04-02T10:41:48.755Z,100689.44
2023-04-02T10:44:30.954Z,100685.22
2023-04-02T10:47:13.865Z,100689.44
2023-04-02T10:49:53.090Z,100693.38
2023-04-02T10:52:19.650Z,100697.94
2023-04-02T10:54:48.598Z,100705.00
2023-04-02T10:57:24.234Z,100714.81
2023-04-02T11:00:09.862Z,100711.28
2023-04-02T11:02:36.693Z,100709.50
2023-04-02T11:05:18.448Z,100722.25
2023-04-02T11:08:03.027Z,100716.72
2023-04-02T11:10:31.892Z,100717.28
2023-04-02T11:13:05.491Z,100728.25
2023-04-02T11:15:32.125Z,100731.50
2023-04-02T11:17:58.839Z,100736.22
2023-04-02T11:20:56.318Z,100739.56
2023-04-02T11:23:26.644Z,100749.16
2023-04-02T11:26:13.054Z,100745.72
2023-04-02T11:28:41.305Z,100751.22
2023-04-02T11:31:07.983Z,100759.94
2023-04-02T11:33:39.198Z,100765.16
2023-04-02T11:36:34.452Z,100764.50
2023-04-02T11:39:14.592Z,100774.22
2023-04-02T11:42:01.258Z,100775.88
2023-04-02T11:44:27.762Z,100785.03
2023-04-02T11:47:14.106Z,100788.22
2023-04-02T11:49:56.445Z,100786.94
2023-04-02T11:52:34.058Z,100794.72
2023-04-02T11:55:02.507Z,100797.25
2023-04-02T11:57:39.762Z,100802.47
2023-04-02T12:00:11.295Z,100811.31
2023-04-02T12:02:53.515Z,100813.97
2023-04-02T12:05:32.248Z,100811.66
2023-04-02T12:08:17.393Z,100834.03
2023-04-02T12:11:00.707Z,100822.41
2023-04-02T12:13:39.659Z,100832.03
2023-04-02T12:16:07.401Z,100837.56
2023-04-02T12:18:34.476Z,100831.91
2023-04-02T12:21:01.214Z,100846.56
2023-04-02T12:23:37.711Z,100841.78
2023-04-02T12:26:06.608Z,100849.78
2023-04-02T12:28:38.380Z,100854.59
2023-04-02T12:31:08.115Z,100859.44
2023-04-02T12:33:37.682Z,100861.84
2023-04-02T12:36:17.109Z,100865.63
2023-04-02T12:38:45.189Z,100872.31
2023-04-02T12:41:27.051Z,100873.78
2023-04-02T12:43:57.591Z,100887.81
2023-04-02T12:46:25.962Z,100886.59
2023-04-02T12:48:54.299Z,100890.16
2023-04-02T12:51:21.259Z,100892.84
2023-04-02T12:53:51.985Z,100897.28
2023-04-02T12:56:22.451Z,100894.16
2023-04-02T12:58:54.048Z,100906.16
2023-04-02T13:01:23.694Z,100910.72
2023-04-02T13:03:59.221Z,100916.72
2023-04-02T13:06:31.958Z,100916.78
2023-04-02T13:09:12.794Z,100915.44
2023-04-02T13:11:40.561Z,100903.19
2023-04-02T13:14:11.732Z,100912.31
2023-04-02T13:16:41.063Z,100918.56
2023-04-02T13:19:19.131Z,100918.31
2023-04-02T13:21:46.173Z,100929.50
2023-04-02T13:24:22.346Z,100927.38
2023-04-02T13:26:52.179Z,100925.25
2023-04-02T13:29:20.294Z,100938.84
2023-04-02T13:31:52.422Z,100938.78
2023-04-02T13:34:30.217Z,100938.66
2023-04-02T13:36:59.565Z,100943.31
2023-04-02T13:39:31.341Z,100940.22
2023-04-02T13:42:01.774Z,100952.84
2023-04-02T13:44:29.885Z,100946.63
2023-04-02T13:46:56.784Z,100942.66
2023-04-02T13:49:29.013Z,100948.41
2023-04-02T13:51:59.492Z,100960.13
2023-04-02T13:54:30.076Z,100962.97
2023-04-02T13:56:59.313Z,100961.16
2023-04-02T13:59:26.130Z,100971.97
2023-04-02T14:01:56.921Z,100971.00
2023-04-02T14:04:35.789Z,100974.31
2023-04-02T14:07:14.684Z,100977.75
2023-04-02T14:09:41.348Z,100989.13
2023-04-02T14:12:24.788Z,100998.16
2023-04-02T14:15:10.118Z,101000.19
2023-04-02T14:17:36.566Z,100996.44
2023-04-02T14:20:06.888Z,101013.34
2023-04-02T14:22:43.886Z,101008.84
2023-04-02T14:25:23.318Z,101018.28
2023-04-02T14:28:22.378Z,101020.19
2023-04-02T14:30:59.108Z,101029.53
2023-04-02T14:33:47.370Z,101026.25
2023-04-02T14:36:31.533Z,101022.50
2023-04-02T14:39:09.100Z,101030.88
2023-04-02T14:41:41.156Z,101029.78
2023-04-02T14:44:11.893Z,101034.31
2023-04-02T14:46:42.435Z,101043.38
2023-04-02T14:49:24.283Z,101036.66
2023-04-02T14:52:01.542Z,101044.56
2023-04-02T14:54:44.819Z,101051.59
2023-04-02T14:57:18.866Z,101061.06
2023-04-02T14:59:47.816Z,101067.59
2023-04-02T15:02:22.111Z,101067.31
2023-04-02T15:05:01.211Z,101073.81
2023-04-02T15:07:34.767Z,101078.00
2023-04-02T15:10:14.518Z,101085.94
2023-04-02T15:12:41.390Z,101092.84
2023-04-02T15:15:13.996Z,101086.25
2023-04-02T15:17:40.665Z,101087.50
2023-04-02T15:20:18.101Z,101096.78
2023-04-02T15:22:51.493Z,101095.28
2023-04-02T15:25:31.121Z,101100.41
2023-04-02T15:28:05.642Z,101102.56
2023-04-02T15:30:37.614Z,101104.28
2023-04-02T15:33:23.326Z,101105.72
2023-04-02T15:35:54.190Z,101100.78
2023-04-02T15:38:32.965Z,101105.19
2023-04-02T15:41:11.744Z,101109.03
2023-04-02T15:43:41.677Z,101109.66
2023-04-02T15:46:28.473Z,101115.72
2023-04-02T15:49:10.195Z,101123.50
2023-04-02T15:51:51.225Z,101124.28
2023-04-02T15:54:26.915Z,101132.09
2023-04-02T15:56:56.836Z,101126.31
2023-04-02T15:59:41.891Z,101134.91
2023-04-02T16:02:17.545Z,101141.38
2023-04-02T16:05:04.799Z,101141.47
2023-04-02T16:07:49.878Z,101137.59
2023-04-02T16:10:37.784Z,101148.66
2023-04-02T16:13:20.594Z,101153.69
2023-04-02T16:15:51.563Z,101160.22
2023-04-02T16:18:24.538Z,101160.59
2023-04-02T16:20:51.958Z,101161.63
2023-04-02T16:23:20.750Z,101171.13
2023-04-02T16:25:57.282Z,101167.78
2023-04-02T16:28:36.188Z,101168.69
2023-04-02T16:31:02.812Z,101169.75
2023-04-02T16:33:35.450Z,101179.19
2023-04-02T16:36:08.235Z,101185.84
2023-04-02T16:38:43.363Z,101187.06
2023-04-02T16:41:22.616Z,101198.91
2023-04-02T16:44:15.501Z,101196.88
2023-04-02T16:46:55.981Z,101208.41
2023-04-02T16:49:26.726Z,101212.31
2023-04-02T16:51:56.859Z,101215.84
2023-04-02T16:54:34.253Z,101223.91
2023-04-02T16:57:19.993Z,101232.34
2023-04-02T16:59:49.684Z,101231.50
2023-04-02T17:02:25.371Z,101239.25
2023-04-02T17:04:53.444Z,101246.56
2023-04-02T17:07:26.187Z,101246.63
2023-04-02T17:09:54.574Z,101248.09
2023-04-02T17:12:27.215Z,101251.38
2023-04-02T17:14:59.577Z,101255.25
2023-04-02T17:17:26.397Z,101259.44
2023-04-02T17:19:55.988Z,101272.22
2023-04-02T17:22:23.508Z,101268.78
2023-04-02T17:24:56.094Z,101273.34
2023-04-02T17:27:27.692Z,101290.13
2023-04-02T17:30:00.169Z,101293.06
2023-04-02T17:32:32.507Z,101295.69
2023-04-02T17:35:19.441Z,101294.63
2023-04-02T17:37:49.381Z,101305.25
2023-04-02T17:40:35.199Z,101311.78
2023-04-02T17:43:10.444Z,101308.16
2023-04-02T17:45:47.879Z,101321.22
2023-04-02T17:48:34.526Z,101322.59
2023-04-02T17:51:25.309Z,101331.81
2023-04-02T17:54:18.601Z,101333.88
2023-04-02T17:56:45.694Z,101334.28
2023-04-02T17:59:31.351Z,101342.41
2023-04-02T18:02:21.037Z,101341.69
2023-04-02T18:04:59.144Z,101350.69
2023-04-02T18:07:31.666Z,101355.16
2023-04-02T18:10:01.431Z,101363.59
2023-04-02T18:12:28.983Z,101367.59
2023-04-02T18:15:05.720Z,101371.19
2023-04-02T18:17:47.975Z,101371.38
2023-04-02T18:20:24.396Z,101374.41
2023-04-02T18:22:58.192Z,101376.63
2023-04-02T18:25:24.747Z,101386.84
2023-04-02T18:28:15.439Z,101395.88
2023-04-02T18:31:08.084Z,101397.06
2023-04-02T18:33:40.561Z,101398.66
2023-04-02T18:36:22.849Z,101402.13
2023-04-02T18:39:02.054Z,101412.59
2023-04-02T18:41:47.069Z,101415.91
2023-04-02T18:44:26.950Z,101416.13
2023-04-02T18:47:09.423Z,101419.63
2023-04-02T18:49:41.149Z,101429.56
2023-04-02T18:52:12.576Z,101426.56
2023-04-02T18:54:53.588Z,101429.97
2023-04-02T18:57:29.360Z,101434.47
2023-04-02T19:00:07.861Z,101443.28
2023-04-02T19:02:42.349Z,101439.47
2023-04-02T19:05:36.438Z,101447.75
2023-04-02T19:08:07.578Z,101447.34
2023-04-02T19:10:39.077Z,101453.03
2023-04-02T19:13:13.564Z,101459.56
2023-04-02T19:15:49.973Z,101454.19
2023-04-02T19:18:26.314Z,101462.31
2023-04-02T19:21:00.808Z,101460.56
2023-04-02T19:23:38.159Z,101464.53
2023-04-02T19:26:28.753Z,101463.59
2023-04-02T19:29:14.380Z,101473.84
2023-04-02T19:31:43.982Z,101471.88
2023-04-02T19:34:29.292Z,101474.53
2023-04-02T19:37:05.678Z,101482.56
2023-04-02T19:39:35.040Z,101488.13
2023-04-02T19:42:10.476Z,101494.53
2023-04-02T19:44:41.010Z,101494.22
2023-04-02T19:47:10.177Z,101491.22
2023-04-02T19:49:37.215Z,101501.50
2023-04-02T19:52:06.030Z,101499.16
2023-04-02T19:54:32.497Z,101499.50
2023-04-02T19:57:00.483Z,101493.88
2023-04-02T19:59:27.337Z,101498.47
2023-04-02T20:01:53.789Z,101501.09
2023-04-02T20:04:20.398Z,101495.81
2023-04-02T20:06:46.941Z,101504.16
2023-04-02T20:09:13.816Z,101505.69
2023-04-02T20:11:40.608Z,101502.84
2023-04-02T20:14:07.220Z,101503.72
2023-04-02T20:16:34.449Z,101499.16
2023-04-02T20:19:01.164Z,101510.09
2023-04-02T20:21:28.216Z,101515.53
2023-04-02T20:23:55.423Z,101507.66
2023-04-02T20:26:22.583Z,101517.69
2023-04-02T20:28:49.144Z,101527.69
2023-04-02T20:31:17.268Z,101520.91
2023-04-02T20:33:47.929Z,101527.72
2023-04-02T20:36:15.849Z,101529.94
2023-04-02T20:38:42.750Z,101536.91
2023-04-02T20:41:09.484Z,101540.53
2023-04-02T20:43:36.606Z,101542.66
2023-04-02T20:46:05.655Z,101548.28
2023-04-02T20:48:32.593Z,101551.59
2023-04-02T20:51:00.012Z,101556.38
2023-04-02T20:53:28.897Z,101555.91
2023-04-02T20:56:02.287Z,101554.72
2023-04-02T20:58:28.795Z,101555.84
2023-04-02T21:00:55.341Z,101572.06
2023-04-02T21:03:22.063Z,101572.34
2023-04-02T21:05:48.694Z,101571.16
2023-04-02T21:08:15.533Z,101574.31
2023-04-02T21:10:42.338Z,101579.34
2023-04-02T21:13:08.829Z,101577.59
2023-04-02T21:15:35.792Z,101580.41
2023-04-02T21:18:02.470Z,101576.72
2023-04-02T21:20:29.128Z,101579.25
2023-04-02T21:22:58.250Z,101574.69
2023-04-02T21:25:24.710Z,101586.03
2023-04-02T21:27:51.918Z,101577.94
2023-04-02T21:30:18.381Z,101586.75
2023-04-02T21:32:44.892Z,101583.28
2023-04-02T21:35:11.494Z,101582.25
2023-04-02T21:37:37.995Z,101584.88
2023-04-02T21:40:04.693Z,101588.31
2023-04-02T21:42:31.309Z,101580.81
2023-04-02T21:44:57.911Z,101596.53
2023-04-02T21:47:25.064Z,101587.75
2023-04-02T21:49:51.538Z,101583.84
2023-04-02T21:52:17.973Z,101583.44
2023-04-02T21:54:44.798Z,101585.72
2023-04-02T21:57:11.297Z,101590.72
2023-04-02T21:59:37.857Z,101582.34
2023-04-02T22:02:04.984Z,101591.94
2023-04-02T22:04:33.312Z,101596.97
2023-04-02T22:06:59.993Z,101597.81
2023-04-02T22:09:27.108Z,101595.50
2023-04-02T22:11:55.244Z,101589.78
2023-04-02T22:14:24.666Z,101592.06
2023-04-02T22:16:52.032Z,101588.53
2023-04-02T22:19:18.908Z,101591.25
2023-04-02T22:21:45.879Z,101597.13
2023-04-02T22:24:13.481Z,101590.84
2023-04-02T22:26:41.011Z,101594.41
2023-04-02T22:29:07.909Z,101605.97
2023-04-02T22:31:35.449Z,101599.59
2023-04-02T22:34:03.642Z,101598.09
2023-04-02T22:36:31.032Z,101597.69
2023-04-02T22:38:58.324Z,101593.28
2023-04-02T22:41:27.256Z,101599.38
2023-04-02T22:43:55.563Z,101595.66
2023-04-02T22:46:22.204Z,101595.78
2023-04-02T22:48:49.383Z,101592.75
2023-04-02T22:51:16.773Z,101606.44
2023-04-02T22:53:43.750Z,101594.81
2023-04-02T22:56:11.850Z,101591.53
2023-04-02T22:58:38.834Z,101595.44
2023-04-02T23:01:06.590Z,101595.78
2023-04-02T23:03:33.103Z,101600.66
2023-04-02T23:06:04.186Z,101599.28
2023-04-02T23:08:30.871Z,101597.25
2023-04-02T23:11:04.746Z,101604.19
2023-04-02T23:13:31.341Z,101590.97
2023-04-02T23:15:57.909Z,101597.97
2023-04-02T23:18:24.411Z,101598.03
2023-04-02T23:20:51.379Z,101599.91
2023-04-02T23:23:17.836Z,101602.44
2023-04-02T23:25:44.463Z,101598.44
2023-04-02T23:28:12.531Z,101598.94
2023-04-02T23:30:41.654Z,101600.28
2023-04-02T23:33:08.169Z,101592.03
2023-04-02T23:35:35.195Z,101601.41
2023-04-02T23:38:03.133Z,101597.19
2023-04-02T23:40:29.607Z,101603.22
2023-04-02T23:42:56.077Z,101595.66
2023-04-02T23:45:22.493Z,101597.78
2023-04-02T23:47:48.925Z,101600.72
2023-04-02T23:50:15.622Z,101601.34
2023-04-02T23:52:43.353Z,101598.31
2023-04-02T23:55:12.381Z,101599.59
2023-04-02T23:57:38.889Z,101602.75
